sensor_id;sensor_type;location;lat;lon;timestamp;pressure;altitude;pressure_sealevel;temperature;humidity
55517;BME280;41724;51.176;-0.708;2023-02-20T00:02:25;102270.66;;;8.15;63.89
55517;BME280;41724;51.176;-0.708;2023-02-20T00:04:54;102268.22;;;8.63;63.28
55517;BME280;41724;51.176;-0.708;2023-02-20T00:07:21;102265.75;;;8.36;64.71
55517;BME280;41724;51.176;-0.708;2023-02-20T00:09:48;102261.23;;;9.10;62.45
55517;BME280;41724;51.176;-0.708;2023-02-20T00:12:16;102257.27;;;9.12;61.09
55517;BME280;41724;51.176;-0.708;2023-02-20T00:14:43;102245.97;;;8.63;62.04
55517;BME280;41724;51.176;-0.708;2023-02-20T00:17:10;102243.01;;;8.95;61.43
55517;BME280;41724;51.176;-0.708;2023-02-20T00:19:38;102239.84;;;8.86;60.66
55517;BME280;41724;51.176;-0.708;2023-02-20T00:22:05;102236.11;;;8.94;60.65
55517;BME280;41724;51.176;-0.708;2023-02-20T00:24:32;102237.57;;;7.97;64.14
55517;BME280;41724;51.176;-0.708;2023-02-20T00:26:59;102241.37;;;8.15;63.71
55517;BME280;41724;51.176;-0.708;2023-02-20T00:29:26;102238.11;;;8.29;64.68
55517;BME280;41724;51.176;-0.708;2023-02-20T00:31:56;102237.08;;;7.93;65.89
55517;BME280;41724;51.176;-0.708;2023-02-20T00:34:26;102234.37;;;7.92;66.05
55517;BME280;41724;51.176;-0.708;2023-02-20T00:36:53;102225.28;;;8.17;65.43
55517;BME280;41724;51.176;-0.708;2023-02-20T00:39:20;102232.17;;;7.16;69.24
55517;BME280;41724;51.176;-0.708;2023-02-20T00:41:47;102228.36;;;6.63;71.08
55517;BME280;41724;51.176;-0.708;2023-02-20T00:44:15;102224.84;;;6.89;70.44
55517;BME280;41724;51.176;-0.708;2023-02-20T00:46:42;102226.50;;;7.25;69.75
55517;BME280;41724;51.176;-0.708;2023-02-20T00:49:09;102222.43;;;6.96;71.76
55517;BME280;41724;51.176;-0.708;2023-02-20T00:51:36;102222.18;;;6.36;74.41
55517;BME280;41724;51.176;-0.708;2023-02-20T00:54:04;102216.72;;;6.58;74.42
55517;BME280;41724;51.176;-0.708;2023-02-20T00:56:31;102211.25;;;6.78;73.29
55517;BME280;41724;51.176;-0.708;2023-02-20T00:58:59;102212.61;;;6.80;73.98
55517;BME280;41724;51.176;-0.708;2023-02-20T01:01:26;102211.38;;;6.90;72.95
55517;BME280;41724;51.176;-0.708;2023-02-20T01:03:53;102212.36;;;7.32;70.25
55517;BME280;41724;51.176;-0.708;2023-02-20T01:06:20;102214.31;;;7.02;72.40
55517;BME280;41724;51.176;-0.708;2023-02-20T01:08:47;102211.56;;;6.60;73.90
55517;BME280;41724;51.176;-0.708;2023-02-20T01:11:16;102203.93;;;6.37;73.23
55517;BME280;41724;51.176;-0.708;2023-02-20T01:13:43;102200.59;;;7.97;70.82
55517;BME280;41724;51.176;-0.708;2023-02-20T01:16:11;102198.73;;;6.67;72.73
55517;BME280;41724;51.176;-0.708;2023-02-20T01:18:38;102192.28;;;7.48;71.09
55517;BME280;41724;51.176;-0.708;2023-02-20T01:21:05;102193.28;;;7.02;72.71
55517;BME280;41724;51.176;-0.708;2023-02-20T01:23:32;102188.65;;;6.94;72.98
55517;BME280;41724;51.176;-0.708;2023-02-20T01:25:59;102183.63;;;6.80;73.99
55517;BME280;41724;51.176;-0.708;2023-02-20T01:28:27;102176.70;;;7.30;73.07
55517;BME280;41724;51.176;-0.708;2023-02-20T01:30:54;102174.42;;;7.16;72.36
55517;BME280;41724;51.176;-0.708;2023-02-20T01:33:21;102179.90;;;7.03;74.53
55517;BME280;41724;51.176;-0.708;2023-02-20T01:35:48;102182.49;;;7.09;73.82
55517;BME280;41724;51.176;-0.708;2023-02-20T01:38:15;102184.04;;;7.25;73.44
55517;BME280;41724;51.176;-0.708;2023-02-20T01:40:46;102182.66;;;7.07;73.15
55517;BME280;41724;51.176;-0.708;2023-02-20T01:43:15;102189.32;;;7.19;72.10
55517;BME280;41724;51.176;-0.708;2023-02-20T01:45:42;102184.76;;;6.96;73.02
55517;BME280;41724;51.176;-0.708;2023-02-20T01:48:18;102179.14;;;7.85;70.20
55517;BME280;41724;51.176;-0.708;2023-02-20T01:50:47;102181.11;;;7.59;70.72
55517;BME280;41724;51.176;-0.708;2023-02-20T01:53:19;102180.67;;;7.50;71.43
55517;BME280;41724;51.176;-0.708;2023-02-20T01:55:51;102179.45;;;7.41;71.51
55517;BME280;41724;51.176;-0.708;2023-02-20T01:58:22;102177.66;;;7.17;72.19
55517;BME280;41724;51.176;-0.708;2023-02-20T02:00:52;102166.13;;;7.61;72.89
55517;BME280;41724;51.176;-0.708;2023-02-20T02:03:22;102169.38;;;7.47;71.99
55517;BME280;41724;51.176;-0.708;2023-02-20T02:05:54;102171.51;;;6.28;75.42
55517;BME280;41724;51.176;-0.708;2023-02-20T02:08:27;102167.04;;;6.95;74.07
55517;BME280;41724;51.176;-0.708;2023-02-20T02:11:00;102163.61;;;7.08;74.50
55517;BME280;41724;51.176;-0.708;2023-02-20T02:13:28;102157.22;;;7.29;74.54
55517;BME280;41724;51.176;-0.708;2023-02-20T02:16:07;102155.20;;;7.22;72.59
55517;BME280;41724;51.176;-0.708;2023-02-20T02:18:50;102161.65;;;7.26;72.86
55517;BME280;41724;51.176;-0.708;2023-02-20T02:22:42;102154.12;;;7.48;71.68
55517;BME280;41724;51.176;-0.708;2023-02-20T02:25:22;102158.89;;;6.63;75.92
55517;BME280;41724;51.176;-0.708;2023-02-20T02:28:15;102153.71;;;7.62;72.58
55517;BME280;41724;51.176;-0.708;2023-02-20T02:31:29;102150.77;;;7.12;73.30
55517;BME280;41724;51.176;-0.708;2023-02-20T02:35:17;102151.19;;;6.56;75.99
55517;BME280;41724;51.176;-0.708;2023-02-20T02:37:51;102156.50;;;6.60;75.88
55517;BME280;41724;51.176;-0.708;2023-02-20T02:40:32;102161.39;;;5.89;78.86
55517;BME280;41724;51.176;-0.708;2023-02-20T02:43:12;102153.16;;;6.43;77.83
55517;BME280;41724;51.176;-0.708;2023-02-20T02:45:49;102155.73;;;6.44;77.16
55517;BME280;41724;51.176;-0.708;2023-02-20T02:48:25;102151.92;;;6.22;78.29
55517;BME280;41724;51.176;-0.708;2023-02-20T02:50:58;102149.57;;;6.67;76.65
55517;BME280;41724;51.176;-0.708;2023-02-20T02:53:27;102147.18;;;6.56;76.33
55517;BME280;41724;51.176;-0.708;2023-02-20T02:55:54;102144.90;;;5.82;78.59
55517;BME280;41724;51.176;-0.708;2023-02-20T02:58:22;102145.92;;;7.36;72.71
55517;BME280;41724;51.176;-0.708;2023-02-20T03:00:53;102146.91;;;5.97;78.16
55517;BME280;41724;51.176;-0.708;2023-02-20T03:03:24;102143.25;;;6.53;76.77
55517;BME280;41724;51.176;-0.708;2023-02-20T03:05:57;102157.21;;;6.54;75.76
55517;BME280;41724;51.176;-0.708;2023-02-20T03:08:32;102141.89;;;6.10;77.61
55517;BME280;41724;51.176;-0.708;2023-02-20T03:11:05;102141.18;;;5.55;80.00
55517;BME280;41724;51.176;-0.708;2023-02-20T03:13:39;102142.37;;;5.85;79.85
55517;BME280;41724;51.176;-0.708;2023-02-20T03:16:10;102138.29;;;5.46;81.93
55517;BME280;41724;51.176;-0.708;2023-02-20T03:18:40;102136.79;;;5.62;83.49
55517;BME280;41724;51.176;-0.708;2023-02-20T03:21:12;102135.87;;;5.54;82.09
55517;BME280;41724;51.176;-0.708;2023-02-20T03:23:47;102139.51;;;5.89;80.86
55517;BME280;41724;51.176;-0.708;2023-02-20T03:26:25;102142.51;;;5.65;80.68
55517;BME280;41724;51.176;-0.708;2023-02-20T03:29:00;102139.67;;;4.94;84.32
55517;BME280;41724;51.176;-0.708;2023-02-20T03:31:32;102141.75;;;5.27;83.98
55517;BME280;41724;51.176;-0.708;2023-02-20T03:34:05;102138.06;;;5.04;84.34
55517;BME280;41724;51.176;-0.708;2023-02-20T03:36:40;102137.97;;;6.02;79.82
55517;BME280;41724;51.176;-0.708;2023-02-20T03:39:12;102146.94;;;6.36;77.44
55517;BME280;41724;51.176;-0.708;2023-02-20T03:41:41;102139.25;;;6.59;77.04
55517;BME280;41724;51.176;-0.708;2023-02-20T03:44:12;102138.64;;;5.69;80.91
55517;BME280;41724;51.176;-0.708;2023-02-20T03:46:42;102133.97;;;5.98;80.19
55517;BME280;41724;51.176;-0.708;2023-02-20T03:49:13;102141.63;;;5.63;80.59
55517;BME280;41724;51.176;-0.708;2023-02-20T03:51:43;102144.53;;;5.75;81.58
55517;BME280;41724;51.176;-0.708;2023-02-20T03:54:10;102138.79;;;5.72;83.20
55517;BME280;41724;51.176;-0.708;2023-02-20T03:56:40;102137.72;;;6.28;80.59
55517;BME280;41724;51.176;-0.708;2023-02-20T03:59:11;102139.34;;;6.00;81.39
55517;BME280;41724;51.176;-0.708;2023-02-20T04:01:41;102141.08;;;5.89;82.31
55517;BME280;41724;51.176;-0.708;2023-02-20T04:04:13;102141.11;;;5.16;86.10
55517;BME280;41724;51.176;-0.708;2023-02-20T04:06:44;102133.73;;;5.43;83.10
55517;BME280;41724;51.176;-0.708;2023-02-20T04:09:18;102134.17;;;5.21;83.68
55517;BME280;41724;51.176;-0.708;2023-02-20T04:11:50;102129.02;;;6.14;81.53
55517;BME280;41724;51.176;-0.708;2023-02-20T04:14:20;102132.16;;;5.95;80.97
55517;BME280;41724;51.176;-0.708;2023-02-20T04:16:51;102130.35;;;6.52;79.47
55517;BME280;41724;51.176;-0.708;2023-02-20T04:19:20;102128.87;;;6.27;79.81
55517;BME280;41724;51.176;-0.708;2023-02-20T04:21:50;102125.82;;;5.66;83.46
55517;BME280;41724;51.176;-0.708;2023-02-20T04:24:22;102125.71;;;6.19;82.72
55517;BME280;41724;51.176;-0.708;2023-02-20T04:26:52;102128.13;;;5.68;82.93
55517;BME280;41724;51.176;-0.708;2023-02-20T04:29:19;102129.65;;;5.75;82.35
55517;BME280;41724;51.176;-0.708;2023-02-20T04:31:46;102131.25;;;5.56;85.04
55517;BME280;41724;51.176;-0.708;2023-02-20T04:34:13;102131.16;;;6.21;81.84
55517;BME280;41724;51.176;-0.708;2023-02-20T04:36:41;102131.22;;;6.69;78.78
55517;BME280;41724;51.176;-0.708;2023-02-20T04:39:08;102130.48;;;6.22;79.62
55517;BME280;41724;51.176;-0.708;2023-02-20T04:41:35;102132.18;;;5.33;83.90
55517;BME280;41724;51.176;-0.708;2023-02-20T04:44:02;102133.27;;;6.45;80.43
55517;BME280;41724;51.176;-0.708;2023-02-20T04:46:30;102135.99;;;6.11;83.73
55517;BME280;41724;51.176;-0.708;2023-02-20T04:48:57;102135.01;;;5.46;85.19
55517;BME280;41724;51.176;-0.708;2023-02-20T04:51:24;102136.53;;;5.61;84.06
55517;BME280;41724;51.176;-0.708;2023-02-20T04:53:51;102139.45;;;5.59;83.15
55517;BME280;41724;51.176;-0.708;2023-02-20T04:56:18;102138.23;;;6.57;80.86
55517;BME280;41724;51.176;-0.708;2023-02-20T04:58:45;102149.87;;;6.23;80.53
55517;BME280;41724;51.176;-0.708;2023-02-20T05:01:12;102146.74;;;6.17;81.44
55517;BME280;41724;51.176;-0.708;2023-02-20T05:03:40;102147.11;;;6.40;79.35
55517;BME280;41724;51.176;-0.708;2023-02-20T05:06:07;102152.32;;;6.92;78.10
55517;BME280;41724;51.176;-0.708;2023-02-20T05:08:34;102152.18;;;7.00;77.12
55517;BME280;41724;51.176;-0.708;2023-02-20T05:11:01;102153.77;;;6.44;79.42
55517;BME280;41724;51.176;-0.708;2023-02-20T05:13:30;102153.08;;;6.66;79.32
55517;BME280;41724;51.176;-0.708;2023-02-20T05:15:57;102162.35;;;6.40;80.85
55517;BME280;41724;51.176;-0.708;2023-02-20T05:18:24;102161.38;;;6.24;82.50
55517;BME280;41724;51.176;-0.708;2023-02-20T05:20:51;102161.20;;;6.12;82.89
55517;BME280;41724;51.176;-0.708;2023-02-20T05:23:18;102161.77;;;5.53;84.61
55517;BME280;41724;51.176;-0.708;2023-02-20T05:25:46;102159.71;;;6.47;81.79
55517;BME280;41724;51.176;-0.708;2023-02-20T05:28:13;102162.14;;;7.52;77.90
55517;BME280;41724;51.176;-0.708;2023-02-20T05:30:40;102161.23;;;7.26;77.74
55517;BME280;41724;51.176;-0.708;2023-02-20T05:33:07;102159.82;;;6.47;81.44
55517;BME280;41724;51.176;-0.708;2023-02-20T05:35:34;102156.65;;;6.30;84.98
55517;BME280;41724;51.176;-0.708;2023-02-20T05:38:02;102154.24;;;6.53;82.89
55517;BME280;41724;51.176;-0.708;2023-02-20T05:40:29;102156.16;;;6.77;81.02
55517;BME280;41724;51.176;-0.708;2023-02-20T05:42:56;102160.24;;;6.37;81.29
55517;BME280;41724;51.176;-0.708;2023-02-20T05:45:23;102162.22;;;6.36;82.21
55517;BME280;41724;51.176;-0.708;2023-02-20T05:47:50;102158.34;;;7.03;79.13
55517;BME280;41724;51.176;-0.708;2023-02-20T05:50:18;102154.42;;;7.74;76.35
55517;BME280;41724;51.176;-0.708;2023-02-20T05:52:45;102149.50;;;7.13;79.79
55517;BME280;41724;51.176;-0.708;2023-02-20T05:55:12;102146.37;;;7.01;80.74
55517;BME280;41724;51.176;-0.708;2023-02-20T05:57:39;102136.88;;;7.49;77.83
55517;BME280;41724;51.176;-0.708;2023-02-20T06:00:07;102138.36;;;7.41;78.59
55517;BME280;41724;51.176;-0.708;2023-02-20T06:02:34;102140.14;;;6.45;81.85
55517;BME280;41724;51.176;-0.708;2023-02-20T06:05:02;102143.50;;;7.68;79.55
55517;BME280;41724;51.176;-0.708;2023-02-20T06:07:28;102141.83;;;7.09;79.67
55517;BME280;41724;51.176;-0.708;2023-02-20T06:09:56;102134.13;;;7.72;77.59
55517;BME280;41724;51.176;-0.708;2023-02-20T06:12:23;102135.08;;;7.44;78.50
55517;BME280;41724;51.176;-0.708;2023-02-20T06:14:50;102138.69;;;8.59;74.52
55517;BME280;41724;51.176;-0.708;2023-02-20T06:17:17;102136.50;;;8.08;74.10
55517;BME280;41724;51.176;-0.708;2023-02-20T06:19:44;102140.65;;;7.13;79.46
55517;BME280;41724;51.176;-0.708;2023-02-20T06:22:11;102130.73;;;7.43;78.50
55517;BME280;41724;51.176;-0.708;2023-02-20T06:24:38;102121.75;;;7.80;76.76
55517;BME280;41724;51.176;-0.708;2023-02-20T06:27:05;102122.63;;;8.02;76.70
55517;BME280;41724;51.176;-0.708;2023-02-20T06:29:33;102122.44;;;7.88;76.57
55517;BME280;41724;51.176;-0.708;2023-02-20T06:32:00;102122.48;;;7.13;80.34
55517;BME280;41724;51.176;-0.708;2023-02-20T06:34:27;102117.38;;;7.31;79.46
55517;BME280;41724;51.176;-0.708;2023-02-20T06:36:54;102114.53;;;7.54;77.39
55517;BME280;41724;51.176;-0.708;2023-02-20T06:39:21;102115.45;;;8.02;75.19
55517;BME280;41724;51.176;-0.708;2023-02-20T06:41:48;102119.78;;;7.67;75.98
55517;BME280;41724;51.176;-0.708;2023-02-20T06:44:16;102117.92;;;7.97;77.08
55517;BME280;41724;51.176;-0.708;2023-02-20T06:46:43;102115.11;;;7.36;77.14
55517;BME280;41724;51.176;-0.708;2023-02-20T06:49:10;102111.11;;;8.43;75.23
55517;BME280;41724;51.176;-0.708;2023-02-20T06:51:37;102117.86;;;7.17;78.97
55517;BME280;41724;51.176;-0.708;2023-02-20T06:54:05;102112.82;;;8.22;76.21
55517;BME280;41724;51.176;-0.708;2023-02-20T06:56:34;102115.86;;;8.55;74.17
55517;BME280;41724;51.176;-0.708;2023-02-20T06:59:03;102115.38;;;8.62;73.14
55517;BME280;41724;51.176;-0.708;2023-02-20T07:01:37;102118.84;;;8.76;72.41
55517;BME280;41724;51.176;-0.708;2023-02-20T07:04:04;102115.53;;;9.11;71.32
55517;BME280;41724;51.176;-0.708;2023-02-20T07:06:31;102115.16;;;9.06;70.97
55517;BME280;41724;51.176;-0.708;2023-02-20T07:08:59;102115.34;;;7.92;74.53
55517;BME280;41724;51.176;-0.708;2023-02-20T07:11:26;102116.03;;;8.34;73.11
55517;BME280;41724;51.176;-0.708;2023-02-20T07:13:53;102117.13;;;7.71;76.02
55517;BME280;41724;51.176;-0.708;2023-02-20T07:16:20;102114.08;;;8.06;76.31
55517;BME280;41724;51.176;-0.708;2023-02-20T07:18:47;102115.19;;;7.42;79.00
55517;BME280;41724;51.176;-0.708;2023-02-20T07:21:15;102112.68;;;6.73;82.32
55517;BME280;41724;51.176;-0.708;2023-02-20T07:23:43;102115.37;;;7.74;77.55
55517;BME280;41724;51.176;-0.708;2023-02-20T07:26:17;102109.66;;;8.20;76.53
55517;BME280;41724;51.176;-0.708;2023-02-20T07:28:44;102104.33;;;7.44;78.28
55517;BME280;41724;51.176;-0.708;2023-02-20T07:31:11;102103.98;;;7.62;78.74
55517;BME280;41724;51.176;-0.708;2023-02-20T07:33:38;102106.51;;;7.07;78.30
55517;BME280;41724;51.176;-0.708;2023-02-20T07:36:07;102099.17;;;7.75;77.68
55517;BME280;41724;51.176;-0.708;2023-02-20T07:38:34;102102.86;;;7.35;79.63
55517;BME280;41724;51.176;-0.708;2023-02-20T07:41:01;102103.95;;;7.00;81.61
55517;BME280;41724;51.176;-0.708;2023-02-20T07:43:28;102103.87;;;5.61;88.63
55517;BME280;41724;51.176;-0.708;2023-02-20T07:45:55;102097.46;;;6.67;85.15
55517;BME280;41724;51.176;-0.708;2023-02-20T07:48:23;102100.70;;;6.39;86.48
55517;BME280;41724;51.176;-0.708;2023-02-20T07:50:51;102098.86;;;6.85;83.33
55517;BME280;41724;51.176;-0.708;2023-02-20T07:53:19;102102.91;;;7.11;83.62
55517;BME280;41724;51.176;-0.708;2023-02-20T07:55:47;102101.32;;;7.18;81.18
55517;BME280;41724;51.176;-0.708;2023-02-20T07:58:14;102113.89;;;7.07;81.70
55517;BME280;41724;51.176;-0.708;2023-02-20T08:00:41;102112.72;;;6.29;85.41
55517;BME280;41724;51.176;-0.708;2023-02-20T08:03:08;102116.06;;;6.67;85.50
55517;BME280;41724;51.176;-0.708;2023-02-20T08:05:35;102108.98;;;7.39;82.13
55517;BME280;41724;51.176;-0.708;2023-02-20T08:08:03;102108.77;;;7.34;82.87
55517;BME280;41724;51.176;-0.708;2023-02-20T08:10:31;102115.87;;;6.81;82.84
55517;BME280;41724;51.176;-0.708;2023-02-20T08:12:58;102117.06;;;7.07;82.07
55517;BME280;41724;51.176;-0.708;2023-02-20T08:15:25;102120.58;;;7.40;80.79
55517;BME280;41724;51.176;-0.708;2023-02-20T08:17:52;102119.52;;;8.36;76.83
55517;BME280;41724;51.176;-0.708;2023-02-20T08:20:20;102127.98;;;7.74;79.41
55517;BME280;41724;51.176;-0.708;2023-02-20T08:22:49;102134.79;;;7.26;82.55
55517;BME280;41724;51.176;-0.708;2023-02-20T08:25:17;102145.04;;;7.00;83.02
55517;BME280;41724;51.176;-0.708;2023-02-20T08:27:46;102140.78;;;7.19;82.19
55517;BME280;41724;51.176;-0.708;2023-02-20T08:30:16;102145.74;;;7.63;80.91
55517;BME280;41724;51.176;-0.708;2023-02-20T08:32:44;102147.29;;;7.58;81.66
55517;BME280;41724;51.176;-0.708;2023-02-20T08:35:10;102152.36;;;7.21;83.85
55517;BME280;41724;51.176;-0.708;2023-02-20T08:37:37;102154.79;;;6.66;86.75
55517;BME280;41724;51.176;-0.708;2023-02-20T08:40:06;102156.86;;;6.68;86.96
55517;BME280;41724;51.176;-0.708;2023-02-20T08:42:33;102160.11;;;7.37;82.77
55517;BME280;41724;51.176;-0.708;2023-02-20T08:45:02;102163.45;;;7.46;82.68
55517;BME280;41724;51.176;-0.708;2023-02-20T08:47:29;102159.01;;;7.38;82.85
55517;BME280;41724;51.176;-0.708;2023-02-20T08:49:56;102162.94;;;7.64;82.13
55517;BME280;41724;51.176;-0.708;2023-02-20T08:52:23;102163.18;;;6.66;84.16
55517;BME280;41724;51.176;-0.708;2023-02-20T08:54:55;102168.33;;;7.83;82.92
55517;BME280;41724;51.176;-0.708;2023-02-20T08:57:58;102163.44;;;8.58;81.60
55517;BME280;41724;51.176;-0.708;2023-02-20T09:00:26;102158.32;;;8.10;80.47
55517;BME280;41724;51.176;-0.708;2023-02-20T09:02:52;102151.54;;;8.51;79.12
55517;BME280;41724;51.176;-0.708;2023-02-20T09:05:20;102148.83;;;9.36;76.48
55517;BME280;41724;51.176;-0.708;2023-02-20T09:07:47;102162.03;;;8.71;77.85
55517;BME280;41724;51.176;-0.708;2023-02-20T09:10:14;102161.56;;;9.12;77.97
55517;BME280;41724;51.176;-0.708;2023-02-20T09:12:41;102156.35;;;8.88;78.33
55517;BME280;41724;51.176;-0.708;2023-02-20T09:15:09;102151.28;;;8.76;79.26
55517;BME280;41724;51.176;-0.708;2023-02-20T09:17:37;102148.99;;;8.61;79.69
55517;BME280;41724;51.176;-0.708;2023-02-20T09:20:05;102145.92;;;7.83;83.00
55517;BME280;41724;51.176;-0.708;2023-02-20T09:22:34;102147.24;;;8.48;81.62
55517;BME280;41724;51.176;-0.708;2023-02-20T09:25:01;102150.97;;;8.24;83.10
55517;BME280;41724;51.176;-0.708;2023-02-20T09:27:29;102152.21;;;7.76;85.29
55517;BME280;41724;51.176;-0.708;2023-02-20T09:29:56;102150.92;;;8.57;84.47
55517;BME280;41724;51.176;-0.708;2023-02-20T09:32:23;102159.22;;;6.94;87.66
55517;BME280;41724;51.176;-0.708;2023-02-20T09:34:50;102150.44;;;7.22;89.27
55517;BME280;41724;51.176;-0.708;2023-02-20T09:37:18;102153.33;;;7.57;88.39
55517;BME280;41724;51.176;-0.708;2023-02-20T09:39:45;102147.80;;;8.57;82.71
55517;BME280;41724;51.176;-0.708;2023-02-20T09:42:30;102138.10;;;8.80;82.04
55517;BME280;41724;51.176;-0.708;2023-02-20T09:45:05;102133.61;;;9.00;80.53
55517;BME280;41724;51.176;-0.708;2023-02-20T09:47:44;102132.24;;;8.77;81.47
55517;BME280;41724;51.176;-0.708;2023-02-20T09:50:25;102130.74;;;8.92;81.05
55517;BME280;41724;51.176;-0.708;2023-02-20T09:53:05;102116.20;;;9.78;77.81
55517;BME280;41724;51.176;-0.708;2023-02-20T09:55:38;102114.29;;;9.79;75.92
55517;BME280;41724;51.176;-0.708;2023-02-20T09:58:11;102123.76;;;8.90;78.99
55517;BME280;41724;51.176;-0.708;2023-02-20T10:00:46;102126.32;;;8.90;79.49
55517;BME280;41724;51.176;-0.708;2023-02-20T10:03:18;102129.54;;;8.93;80.33
55517;BME280;41724;51.176;-0.708;2023-02-20T10:05:47;102135.06;;;9.14;79.29
55517;BME280;41724;51.176;-0.708;2023-02-20T10:08:18;102131.49;;;8.87;80.27
55517;BME280;41724;51.176;-0.708;2023-02-20T10:10:49;102128.00;;;9.22;79.04
55517;BME280;41724;51.176;-0.708;2023-02-20T10:13:35;102132.65;;;8.38;80.04
55517;BME280;41724;51.176;-0.708;2023-02-20T10:16:14;102124.83;;;8.89;79.60
55517;BME280;41724;51.176;-0.708;2023-02-20T10:18:53;102123.71;;;8.74;80.63
55517;BME280;41724;51.176;-0.708;2023-02-20T10:21:37;102123.36;;;8.17;81.25
55517;BME280;41724;51.176;-0.708;2023-02-20T10:24:25;102123.70;;;8.56;82.30
55517;BME280;41724;51.176;-0.708;2023-02-20T10:27:03;102136.70;;;8.55;80.97
55517;BME280;41724;51.176;-0.708;2023-02-20T10:29:35;102124.92;;;9.69;77.46
55517;BME280;41724;51.176;-0.708;2023-02-20T10:32:06;102120.83;;;9.02;78.00
55517;BME280;41724;51.176;-0.708;2023-02-20T10:34:40;102121.31;;;8.66;79.83
55517;BME280;41724;51.176;-0.708;2023-02-20T10:37:12;102121.59;;;8.59;79.76
55517;BME280;41724;51.176;-0.708;2023-02-20T10:39:46;102114.35;;;9.19;77.86
55517;BME280;41724;51.176;-0.708;2023-02-20T10:42:19;102118.34;;;9.20;77.39
55517;BME280;41724;51.176;-0.708;2023-02-20T10:44:54;102116.09;;;8.94;77.59
55517;BME280;41724;51.176;-0.708;2023-02-20T10:47:30;102111.08;;;8.83;78.68
55517;BME280;41724;51.176;-0.708;2023-02-20T10:50:04;102123.11;;;8.73;79.00
55517;BME280;41724;51.176;-0.708;2023-02-20T10:52:36;102115.19;;;9.05;79.11
55517;BME280;41724;51.176;-0.708;2023-02-20T10:55:16;102104.83;;;9.22;77.86
55517;BME280;41724;51.176;-0.708;2023-02-20T10:57:48;102109.71;;;8.33;78.52
55517;BME280;41724;51.176;-0.708;2023-02-20T11:00:22;102104.64;;;9.23;77.50
55517;BME280;41724;51.176;-0.708;2023-02-20T11:02:54;102099.77;;;9.07;77.40
55517;BME280;41724;51.176;-0.708;2023-02-20T11:05:27;102103.02;;;10.33;71.97
55517;BME280;41724;51.176;-0.708;2023-02-20T11:07:57;102105.42;;;9.85;72.75
55517;BME280;41724;51.176;-0.708;2023-02-20T11:10:24;102103.68;;;9.40;75.04
55517;BME280;41724;51.176;-0.708;2023-02-20T11:12:56;102097.26;;;9.42;77.02
55517;BME280;41724;51.176;-0.708;2023-02-20T11:15:27;102089.04;;;9.23;78.20
55517;BME280;41724;51.176;-0.708;2023-02-20T11:17:55;102084.79;;;9.28;77.44
55517;BME280;41724;51.176;-0.708;2023-02-20T11:20:41;102084.63;;;9.23;76.80
55517;BME280;41724;51.176;-0.708;2023-02-20T11:23:08;102090.66;;;9.71;74.46
55517;BME280;41724;51.176;-0.708;2023-02-20T11:25:37;102086.59;;;9.74;74.25
55517;BME280;41724;51.176;-0.708;2023-02-20T11:28:10;102080.38;;;9.65;74.51
55517;BME280;41724;51.176;-0.708;2023-02-20T11:30:45;102080.62;;;10.21;73.89
55517;BME280;41724;51.176;-0.708;2023-02-20T11:33:14;102082.18;;;9.99;72.38
55517;BME280;41724;51.176;-0.708;2023-02-20T11:35:43;102083.91;;;10.04;73.70
55517;BME280;41724;51.176;-0.708;2023-02-20T11:38:27;102079.37;;;8.31;80.96
55517;BME280;41724;51.176;-0.708;2023-02-20T11:41:03;102073.00;;;9.05;78.60
55517;BME280;41724;51.176;-0.708;2023-02-20T11:43:33;102074.70;;;9.18;78.49
55517;BME280;41724;51.176;-0.708;2023-02-20T11:46:14;102071.67;;;9.93;75.13
55517;BME280;41724;51.176;-0.708;2023-02-20T11:48:58;102069.00;;;10.19;72.16
55517;BME280;41724;51.176;-0.708;2023-02-20T11:51:32;102070.23;;;9.32;77.26
55517;BME280;41724;51.176;-0.708;2023-02-20T11:54:11;102061.66;;;8.52;78.78
55517;BME280;41724;51.176;-0.708;2023-02-20T11:56:54;102060.32;;;8.70;79.02
55517;BME280;41724;51.176;-0.708;2023-02-20T11:59:28;102056.06;;;8.68;79.33
55517;BME280;41724;51.176;-0.708;2023-02-20T12:02:11;102049.28;;;9.06;79.54
55517;BME280;41724;51.176;-0.708;2023-02-20T12:05:01;102052.09;;;9.49;76.17
55517;BME280;41724;51.176;-0.708;2023-02-20T12:07:33;102052.00;;;9.06;78.71
55517;BME280;41724;51.176;-0.708;2023-02-20T12:10:04;102047.70;;;9.37;77.57
55517;BME280;41724;51.176;-0.708;2023-02-20T12:12:36;102042.70;;;9.27;78.32
55517;BME280;41724;51.176;-0.708;2023-02-20T12:15:10;102035.95;;;9.96;73.94
55517;BME280;41724;51.176;-0.708;2023-02-20T12:17:47;102045.02;;;10.23;73.17
55517;BME280;41724;51.176;-0.708;2023-02-20T12:20:21;102036.94;;;9.09;77.99
55517;BME280;41724;51.176;-0.708;2023-02-20T12:22:59;102038.45;;;9.23;76.93
55517;BME280;41724;51.176;-0.708;2023-02-20T12:25:34;102038.73;;;10.25;74.05
55517;BME280;41724;51.176;-0.708;2023-02-20T12:28:12;102037.21;;;9.45;75.56
55517;BME280;41724;51.176;-0.708;2023-02-20T12:30:58;102038.30;;;9.40;75.72
55517;BME280;41724;51.176;-0.708;2023-02-20T12:33:50;102034.81;;;9.39;76.03
55517;BME280;41724;51.176;-0.708;2023-02-20T12:36:27;102032.76;;;10.44;71.80
55517;BME280;41724;51.176;-0.708;2023-02-20T12:38:58;102027.12;;;9.49;76.23
55517;BME280;41724;51.176;-0.708;2023-02-20T12:41:38;102022.84;;;9.44;76.74
55517;BME280;41724;51.176;-0.708;2023-02-20T12:44:27;102012.86;;;9.66;75.15
55517;BME280;41724;51.176;-0.708;2023-02-20T12:47:07;102005.17;;;10.12;73.12
55517;BME280;41724;51.176;-0.708;2023-02-20T12:49:52;101993.58;;;10.80;72.72
55517;BME280;41724;51.176;-0.708;2023-02-20T12:52:44;102000.53;;;10.01;73.29
55517;BME280;41724;51.176;-0.708;2023-02-20T12:55:20;101991.31;;;10.63;72.01
55517;BME280;41724;51.176;-0.708;2023-02-20T12:57:59;101987.45;;;10.55;72.07
55517;BME280;41724;51.176;-0.708;2023-02-20T13:00:32;101980.49;;;10.47;73.19
55517;BME280;41724;51.176;-0.708;2023-02-20T13:03:07;101977.33;;;10.89;71.54
55517;BME280;41724;51.176;-0.708;2023-02-20T13:05:41;101985.46;;;10.85;71.25
55517;BME280;41724;51.176;-0.708;2023-02-20T13:08:11;101982.96;;;10.44;73.58
55517;BME280;41724;51.176;-0.708;2023-02-20T13:10:47;101974.64;;;10.22;73.99
55517;BME280;41724;51.176;-0.708;2023-02-20T13:13:17;101966.52;;;10.58;72.90